createdAt,value
2022-12-01T00:01:31.323Z,6.40
2022-12-01T00:04:03.984Z,6.47
2022-12-01T00:06:37.555Z,4.72
2022-12-01T00:09:28.629Z,6.68
2022-12-01T00:12:01.216Z,5.22
2022-12-01T00:14:33.672Z,5.28
2022-12-01T00:17:06.199Z,9.87
2022-12-01T00:19:38.692Z,5.93
2022-12-01T00:22:11.274Z,3.63
2022-12-01T00:24:43.786Z,4.22
2022-12-01T00:27:16.479Z,4.20
2022-12-01T00:29:49.225Z,8.15
2022-12-01T00:32:21.920Z,4.03
2022-12-01T00:34:54.607Z,3.92
2022-12-01T00:37:29.476Z,6.35
2022-12-01T00:40:02.382Z,3.90
2022-12-01T00:42:35.030Z,5.03
2022-12-01T00:45:08.047Z,7.15
2022-12-01T00:47:40.570Z,5.13
2022-12-01T00:50:14.961Z,4.05
2022-12-01T00:52:47.584Z,4.15
2022-12-01T00:55:20.037Z,4.38
2022-12-01T00:57:52.579Z,3.87
2022-12-01T01:00:25.169Z,5.10
2022-12-01T01:02:57.838Z,3.75
2022-12-01T01:05:30.475Z,4.13
2022-12-01T01:08:06.791Z,5.07
2022-12-01T01:10:43.852Z,3.55
2022-12-01T01:13:17.189Z,3.05
2022-12-01T01:18:32.124Z,3.83
2022-12-01T01:21:08.026Z,4.63
2022-12-01T01:23:44.055Z,3.78
2022-12-01T01:26:20.915Z,4.30
2022-12-01T01:28:54.028Z,4.85
2022-12-01T01:31:29.213Z,3.47
2022-12-01T01:34:01.926Z,3.80
2022-12-01T01:36:34.555Z,5.43
2022-12-01T01:39:07.191Z,3.13
2022-12-01T01:41:39.822Z,3.20
2022-12-01T01:44:51.118Z,3.80
2022-12-01T01:47:39.536Z,3.88
2022-12-01T01:50:15.156Z,4.15
2022-12-01T01:52:56.071Z,3.45
2022-12-01T01:55:32.249Z,3.38
2022-12-01T01:58:09.618Z,3.30
2022-12-01T02:00:45.163Z,5.80
2022-12-01T02:03:19.770Z,3.95
2022-12-01T02:05:52.368Z,3.47
2022-12-01T02:08:24.895Z,3.80
2022-12-01T02:11:00.183Z,3.25
2022-12-01T02:13:58.730Z,5.50
2022-12-01T02:17:03.501Z,4.88
2022-12-01T02:19:36.134Z,5.22
2022-12-01T02:22:43.275Z,5.80
2022-12-01T02:25:33.825Z,3.67
2022-12-01T02:28:40.387Z,4.10
2022-12-01T02:31:22.915Z,3.47
2022-12-01T02:34:13.885Z,5.43
2022-12-01T02:37:04.783Z,3.10
2022-12-01T02:39:49.564Z,3.35
2022-12-01T02:42:51.338Z,4.07
2022-12-01T02:45:52.517Z,5.35
2022-12-01T02:48:35.021Z,3.53
2022-12-01T02:51:15.200Z,6.25
2022-12-01T02:53:47.979Z,3.50
2022-12-01T02:56:22.149Z,5.32
2022-12-01T02:58:54.990Z,5.55
2022-12-01T03:01:46.312Z,4.30
2022-12-01T03:04:52.660Z,2.50
2022-12-01T03:07:47.894Z,5.75
2022-12-01T03:10:48.450Z,5.90
2022-12-01T03:13:38.338Z,4.68
2022-12-01T03:16:34.043Z,2.47
2022-12-01T03:19:14.900Z,3.72
2022-12-01T03:21:52.539Z,4.63
2022-12-01T03:24:29.672Z,3.05
2022-12-01T03:27:04.278Z,3.28
2022-12-01T03:29:45.180Z,4.35
2022-12-01T03:32:35.103Z,4.53
2022-12-01T03:35:36.559Z,5.03
2022-12-01T03:38:18.959Z,3.45
2022-12-01T03:40:58.222Z,4.10
2022-12-01T03:43:34.499Z,3.03
2022-12-01T03:46:41.403Z,3.45
2022-12-01T03:49:17.408Z,3.17
2022-12-01T03:51:59.172Z,4.47
2022-12-01T03:54:47.591Z,3.13
2022-12-01T03:57:49.079Z,2.40
2022-12-01T04:00:22.600Z,2.88
2022-12-01T04:03:00.818Z,3.35
2022-12-01T04:05:35.225Z,2.83
2022-12-01T04:08:07.844Z,3.35
2022-12-01T04:10:40.471Z,6.47
2022-12-01T04:13:22.500Z,4.25
2022-12-01T04:15:55.850Z,5.68
2022-12-01T04:21:00.652Z,5.15
2022-12-01T04:23:51.568Z,5.57
2022-12-01T04:26:24.073Z,2.97
2022-12-01T04:28:56.621Z,5.67
2022-12-01T04:31:29.580Z,3.03
2022-12-01T04:34:02.466Z,4.13
2022-12-01T04:36:35.908Z,4.30
2022-12-01T04:39:08.460Z,2.67
2022-12-01T04:41:41.014Z,2.80
2022-12-01T04:44:13.706Z,5.78
2022-12-01T04:46:46.219Z,3.63
2022-12-01T04:49:19.298Z,4.07
2022-12-01T04:51:52.184Z,6.38
2022-12-01T04:54:24.859Z,3.78
2022-12-01T04:56:57.404Z,4.38
2022-12-01T04:59:30.018Z,3.60
2022-12-01T05:02:04.380Z,6.25
2022-12-01T05:04:38.939Z,2.72
2022-12-01T05:07:11.463Z,2.78
2022-12-01T05:09:44.005Z,6.00
2022-12-01T05:12:17.488Z,3.90
2022-12-01T05:14:50.604Z,4.32
2022-12-01T05:17:23.214Z,3.15
2022-12-01T05:20:14.090Z,4.70
2022-12-01T05:23:04.745Z,4.63
2022-12-01T05:25:38.310Z,3.38
2022-12-01T05:28:10.993Z,3.28
2022-12-01T05:30:44.316Z,3.70
2022-12-01T05:35:50.631Z,3.17
2022-12-01T05:38:23.525Z,4.05
2022-12-01T05:40:56.887Z,4.22
2022-12-01T05:46:03.085Z,3.97
2022-12-01T05:48:35.769Z,3.28
2022-12-01T05:51:10.287Z,5.63
2022-12-01T05:53:43.273Z,10.88
2022-12-01T05:56:15.769Z,5.30
2022-12-01T05:58:48.348Z,4.47
2022-12-01T06:01:20.978Z,4.83
2022-12-01T06:03:54.395Z,4.28
2022-12-01T06:08:59.260Z,9.40
2022-12-01T06:11:31.793Z,5.50
2022-12-01T06:14:04.240Z,3.90
2022-12-01T06:16:37.125Z,7.23
2022-12-01T06:19:09.982Z,8.48
2022-12-01T06:21:42.548Z,4.47
2022-12-01T06:24:15.182Z,5.18
2022-12-01T06:26:47.719Z,7.35
2022-12-01T06:29:20.281Z,7.18
2022-12-01T06:31:53.037Z,6.95
2022-12-01T06:34:25.621Z,7.88
2022-12-01T06:36:58.289Z,7.33
2022-12-01T06:39:30.906Z,17.67
2022-12-01T06:42:03.646Z,8.88
2022-12-01T06:44:36.168Z,7.30
2022-12-01T06:47:08.996Z,5.40
2022-12-01T06:49:41.704Z,9.73
2022-12-01T06:52:14.360Z,8.63
2022-12-01T06:54:46.967Z,8.05
2022-12-01T06:57:19.684Z,7.03
2022-12-01T06:59:53.024Z,13.30
2022-12-01T07:02:26.063Z,9.38
2022-12-01T07:04:58.603Z,8.65
2022-12-01T07:07:31.235Z,9.95
2022-12-01T07:10:04.061Z,12.13
2022-12-01T07:12:36.786Z,11.52
2022-12-01T07:15:09.813Z,17.25
2022-12-01T07:17:42.465Z,12.38
2022-12-01T07:20:15.237Z,27.45
2022-12-01T07:22:47.848Z,13.30
2022-12-01T07:25:20.364Z,14.15
2022-12-01T07:27:52.834Z,9.57
2022-12-01T07:30:28.393Z,7.38
2022-12-01T07:33:01.357Z,7.28
2022-12-01T07:35:33.852Z,7.85
2022-12-01T07:38:06.419Z,11.30
2022-12-01T07:40:38.911Z,4.15
2022-12-01T07:43:11.482Z,7.50
2022-12-01T07:45:44.158Z,9.38
2022-12-01T07:48:16.741Z,10.65
2022-12-01T07:50:49.359Z,7.68
2022-12-01T07:53:21.909Z,5.65
2022-12-01T07:55:54.554Z,7.95
2022-12-01T07:58:27.272Z,8.75
2022-12-01T08:01:00.125Z,7.45
2022-12-01T08:03:32.673Z,5.60
2022-12-01T08:06:06.268Z,6.47
2022-12-01T08:08:40.914Z,4.82
2022-12-01T08:11:21.255Z,7.32
2022-12-01T08:13:54.141Z,6.53
2022-12-01T08:16:27.057Z,6.13
2022-12-01T08:18:59.788Z,7.68
2022-12-01T08:21:32.757Z,5.68
2022-12-01T08:24:05.781Z,8.48
2022-12-01T08:26:38.358Z,8.65
2022-12-01T08:29:13.537Z,11.73
2022-12-01T08:31:48.466Z,7.60
2022-12-01T08:34:20.979Z,10.88
2022-12-01T08:36:53.536Z,13.85
2022-12-01T08:39:26.166Z,12.90
2022-12-01T08:41:58.777Z,11.80
2022-12-01T08:44:31.394Z,10.10
2022-12-01T08:47:04.187Z,9.15
2022-12-01T08:49:36.818Z,11.85
2022-12-01T08:52:09.393Z,9.75
2022-12-01T08:54:41.949Z,13.82
2022-12-01T08:57:14.675Z,12.25
2022-12-01T08:59:47.719Z,8.88
2022-12-01T09:04:56.205Z,11.73
2022-12-01T09:07:28.825Z,11.57
2022-12-01T09:10:01.493Z,13.88
2022-12-01T09:12:34.069Z,12.30
2022-12-01T09:15:07.006Z,12.45
2022-12-01T09:17:39.579Z,12.30
2022-12-01T09:20:12.728Z,9.95
2022-12-01T09:25:17.696Z,16.08
2022-12-01T09:27:50.312Z,14.48
2022-12-01T09:30:22.813Z,14.10
2022-12-01T09:32:55.593Z,14.50
2022-12-01T09:35:28.409Z,13.70
2022-12-01T09:38:01.142Z,16.38
2022-12-01T09:40:42.907Z,14.00
2022-12-01T09:43:25.930Z,19.10
2022-12-01T09:46:07.941Z,11.98
2022-12-01T09:48:46.585Z,13.30
2022-12-01T09:52:13.321Z,11.50
2022-12-01T09:54:49.688Z,10.77
2022-12-01T09:57:36.306Z,11.50
2022-12-01T10:00:15.600Z,11.82
2022-12-01T10:03:15.154Z,9.82
2022-12-01T10:06:27.402Z,9.65
2022-12-01T10:09:45.524Z,7.35
2022-12-01T10:12:20.577Z,6.45
2022-12-01T10:14:53.774Z,7.38
2022-12-01T10:20:15.831Z,5.28
2022-12-01T10:23:12.812Z,6.63
2022-12-01T10:26:18.743Z,6.10
2022-12-01T10:29:07.124Z,10.38
2022-12-01T10:31:58.279Z,6.88
2022-12-01T10:34:38.074Z,5.55
2022-12-01T10:37:24.968Z,4.22
2022-12-01T10:39:58.976Z,4.00
2022-12-01T10:42:34.738Z,4.07
2022-12-01T10:45:20.551Z,11.43
2022-12-01T10:48:08.826Z,6.68
2022-12-01T10:50:46.549Z,3.92
2022-12-01T10:53:32.684Z,4.80
2022-12-01T10:56:05.353Z,6.18
2022-12-01T10:58:44.581Z,5.30
2022-12-01T11:01:26.801Z,3.63
2022-12-01T11:04:06.728Z,5.97
2022-12-01T11:06:39.674Z,2.92
2022-12-01T11:09:26.021Z,5.22
2022-12-01T11:12:04.754Z,6.03
2022-12-01T11:14:52.406Z,4.05
2022-12-01T11:17:30.743Z,5.88
2022-12-01T11:20:29.645Z,4.05
2022-12-01T11:23:28.550Z,4.75
2022-12-01T11:26:18.008Z,4.97
2022-12-01T11:29:02.612Z,4.88
2022-12-01T11:31:45.338Z,5.95
2022-12-01T11:34:24.732Z,3.80
2022-12-01T11:37:08.485Z,3.38
2022-12-01T11:39:44.243Z,3.60
2022-12-01T11:42:29.588Z,4.43
2022-12-01T11:45:32.511Z,4.72
2022-12-01T11:48:23.324Z,5.13
2022-12-01T11:51:18.214Z,4.90
2022-12-01T11:54:17.213Z,5.05
2022-12-01T11:57:17.435Z,3.67
2022-12-01T11:59:43.958Z,3.13
2022-12-01T12:02:30.223Z,3.53
2022-12-01T12:05:35.148Z,3.70
2022-12-01T12:08:45.264Z,4.95
2022-12-01T12:11:25.250Z,5.70
2022-12-01T12:14:38.699Z,2.50
2022-12-01T12:17:19.972Z,6.95
2022-12-01T12:20:09.248Z,3.58
2022-12-01T12:23:25.902Z,2.80
2022-12-01T12:26:21.826Z,2.40
2022-12-01T12:29:24.658Z,2.88
2022-12-01T12:32:24.205Z,3.15
2022-12-01T12:35:27.718Z,2.70
2022-12-01T12:38:12.048Z,3.67
2022-12-01T12:41:05.981Z,6.30
2022-12-01T12:43:53.367Z,3.72
2022-12-01T12:46:57.244Z,5.72
2022-12-01T12:52:26.115Z,3.03
2022-12-01T12:55:04.354Z,5.88
2022-12-01T12:57:43.927Z,3.15
2022-12-01T13:00:18.689Z,3.38
2022-12-01T13:03:11.547Z,3.30
2022-12-01T13:05:56.666Z,2.90
2022-12-01T13:08:48.338Z,2.22
2022-12-01T13:11:27.427Z,2.45
2022-12-01T13:14:15.804Z,5.43
2022-12-01T13:16:50.821Z,4.20
2022-12-01T13:19:28.010Z,3.17
2022-12-01T13:22:01.823Z,3.42
2022-12-01T13:24:34.731Z,3.05
2022-12-01T13:27:10.045Z,6.50
2022-12-01T13:29:48.056Z,3.40
2022-12-01T13:32:35.939Z,4.88
2022-12-01T13:35:30.926Z,3.97
2022-12-01T13:38:25.220Z,2.67
2022-12-01T13:41:19.290Z,3.40
2022-12-01T13:44:33.011Z,6.50
2022-12-01T13:47:57.787Z,3.22
2022-12-01T13:50:46.276Z,8.07
2022-12-01T13:53:26.322Z,3.38
2022-12-01T13:56:18.122Z,7.82
2022-12-01T13:58:53.223Z,3.40
2022-12-01T14:01:26.075Z,3.15
2022-12-01T14:04:11.243Z,3.97
2022-12-01T14:06:49.732Z,3.72
2022-12-01T14:09:32.100Z,4.43
2022-12-01T14:12:18.953Z,3.15
2022-12-01T14:15:01.961Z,3.75
2022-12-01T14:17:37.528Z,3.78
2022-12-01T14:20:22.555Z,3.83
2022-12-01T14:23:21.120Z,3.10
2022-12-01T14:26:12.687Z,3.22
2022-12-01T14:29:03.339Z,4.70
2022-12-01T14:31:36.252Z,4.35
2022-12-01T14:34:24.490Z,4.18
2022-12-01T14:37:06.315Z,4.38
2022-12-01T14:39:42.622Z,5.18
2022-12-01T14:42:59.047Z,3.78
2022-12-01T14:45:55.882Z,3.40
2022-12-01T14:48:42.493Z,3.83
2022-12-01T14:51:27.418Z,3.88
2022-12-01T14:54:04.414Z,6.32
2022-12-01T14:56:37.552Z,7.15
2022-12-01T14:59:23.236Z,4.95
2022-12-01T15:01:58.657Z,3.47
2022-12-01T15:04:33.335Z,5.22
2022-12-01T15:07:05.942Z,4.78
2022-12-01T15:09:59.212Z,4.97
2022-12-01T15:12:32.217Z,4.47
2022-12-01T15:15:24.374Z,4.85
2022-12-01T15:17:58.163Z,4.88
2022-12-01T15:20:43.637Z,4.25
2022-12-01T15:23:20.333Z,4.93
2022-12-01T15:25:52.999Z,5.38
2022-12-01T15:28:32.863Z,6.28
2022-12-01T15:31:11.850Z,5.80
2022-12-01T15:33:51.649Z,5.45
2022-12-01T15:36:24.413Z,6.50
2022-12-01T15:39:05.234Z,7.43
2022-12-01T15:41:41.802Z,9.03
2022-12-01T15:44:35.734Z,7.13
2022-12-01T15:47:31.653Z,5.75
2022-12-01T15:50:06.040Z,5.40
2022-12-01T15:52:44.127Z,6.38
2022-12-01T15:55:28.839Z,4.95
2022-12-01T15:58:06.576Z,6.93
2022-12-01T16:00:39.176Z,8.30
2022-12-01T16:03:15.022Z,7.55
2022-12-01T16:05:47.578Z,4.43
2022-12-01T16:08:28.480Z,5.15
2022-12-01T16:11:19.396Z,6.38
2022-12-01T16:14:27.022Z,11.32
2022-12-01T16:17:00.448Z,4.72
2022-12-01T16:19:36.172Z,5.75
2022-12-01T16:22:11.460Z,5.93
2022-12-01T16:24:52.919Z,8.85
2022-12-01T16:27:31.228Z,4.80
2022-12-01T16:30:19.855Z,7.10
2022-12-01T16:33:00.405Z,6.10
2022-12-01T16:35:34.424Z,5.85
2022-12-01T16:38:22.736Z,4.78
2022-12-01T16:40:57.721Z,6.10
2022-12-01T16:43:30.399Z,6.47
2022-12-01T16:46:06.828Z,6.00
2022-12-01T16:48:39.403Z,5.75
2022-12-01T16:51:14.636Z,8.15
2022-12-01T16:53:50.921Z,6.25
2022-12-01T16:56:23.855Z,7.63
2022-12-01T16:58:56.465Z,11.20
2022-12-01T17:01:29.806Z,7.43
2022-12-01T17:04:07.195Z,8.20
2022-12-01T17:06:40.361Z,8.45
2022-12-01T17:09:12.977Z,6.68
2022-12-01T17:11:45.775Z,9.25
2022-12-01T17:14:18.421Z,7.72
2022-12-01T17:16:51.236Z,9.73
2022-12-01T17:19:23.825Z,13.75
2022-12-01T17:21:57.218Z,11.57
2022-12-01T17:24:29.901Z,10.70
2022-12-01T17:27:02.490Z,9.02
2022-12-01T17:29:35.089Z,5.00
2022-12-01T17:32:09.383Z,9.80
2022-12-01T17:34:42.181Z,11.00
2022-12-01T17:37:19.208Z,9.27
2022-12-01T17:39:54.357Z,8.90
2022-12-01T17:44:59.828Z,7.97
2022-12-01T17:47:32.368Z,9.35
2022-12-01T17:50:05.375Z,8.07
2022-12-01T17:52:37.939Z,9.60
2022-12-01T17:55:10.665Z,9.20
2022-12-01T17:57:43.496Z,6.15
2022-12-01T18:00:16.577Z,5.75
2022-12-01T18:02:50.802Z,6.28
2022-12-01T18:05:25.103Z,10.73
2022-12-01T18:07:57.776Z,7.75
2022-12-01T18:10:30.467Z,9.13
2022-12-01T18:13:03.161Z,7.10
2022-12-01T18:15:35.776Z,4.95
2022-12-01T18:18:08.372Z,7.72
2022-12-01T18:20:44.464Z,10.05
2022-12-01T18:23:17.029Z,5.47
2022-12-01T18:25:51.053Z,6.63
2022-12-01T18:28:23.612Z,8.95
2022-12-01T18:30:56.178Z,13.38
2022-12-01T18:33:32.965Z,6.13
2022-12-01T18:36:06.486Z,6.32
2022-12-01T18:38:39.130Z,7.57
2022-12-01T18:41:11.814Z,8.23
2022-12-01T18:43:45.532Z,5.53
2022-12-01T18:46:19.524Z,6.28
2022-12-01T18:49:00.916Z,6.60
2022-12-01T18:51:35.646Z,6.25
2022-12-01T18:54:12.216Z,7.63
2022-12-01T18:56:44.776Z,8.80
2022-12-01T18:59:18.694Z,8.70
2022-12-01T19:01:51.469Z,22.63
2022-12-01T19:04:24.341Z,29.38
2022-12-01T19:06:57.098Z,33.63
2022-12-01T19:09:29.740Z,31.48
2022-12-01T19:12:02.648Z,26.77
2022-12-01T19:14:35.371Z,46.08
2022-12-01T19:17:07.965Z,29.00
2022-12-01T19:19:40.558Z,25.45
2022-12-01T19:22:13.688Z,16.48
2022-12-01T19:24:50.161Z,15.88
2022-12-01T19:27:23.172Z,11.30
2022-12-01T19:29:56.188Z,13.02
2022-12-01T19:32:32.531Z,12.15
2022-12-01T19:35:05.555Z,9.75
2022-12-01T19:37:38.250Z,22.60
2022-12-01T19:40:11.488Z,12.32
2022-12-01T19:45:16.826Z,15.73
2022-12-01T19:47:51.512Z,15.45
2022-12-01T19:50:24.443Z,17.23
2022-12-01T19:55:29.949Z,14.57
2022-12-01T19:58:02.562Z,13.68
2022-12-01T20:00:35.278Z,17.38
2022-12-01T20:03:07.880Z,14.77
2022-12-01T20:05:40.461Z,24.23
2022-12-01T20:08:14.185Z,13.45
2022-12-01T20:10:49.765Z,19.55
2022-12-01T20:13:22.339Z,15.57
2022-12-01T20:15:55.003Z,16.90
2022-12-01T20:18:27.494Z,15.80
2022-12-01T20:21:13.138Z,18.52
2022-12-01T20:23:48.181Z,15.68
2022-12-01T20:26:24.922Z,18.33
2022-12-01T20:29:12.957Z,16.98
2022-12-01T20:31:46.913Z,17.92
2022-12-01T20:34:22.663Z,16.55
2022-12-01T20:36:55.428Z,18.58
2022-12-01T20:39:31.711Z,18.63
2022-12-01T20:42:05.311Z,22.92
2022-12-01T20:44:38.317Z,16.83
2022-12-01T20:47:10.911Z,16.40
2022-12-01T20:49:43.701Z,18.20
2022-12-01T20:52:16.313Z,17.88
2022-12-01T20:54:49.212Z,22.90
2022-12-01T20:57:21.985Z,18.85
2022-12-01T20:59:54.673Z,17.27
2022-12-01T21:02:27.666Z,19.35
2022-12-01T21:05:00.840Z,16.20
2022-12-01T21:07:33.732Z,17.30
2022-12-01T21:10:07.039Z,15.85
2022-12-01T21:15:32.689Z,15.20
2022-12-01T21:18:11.381Z,17.60
2022-12-01T21:20:46.821Z,17.85
2022-12-01T21:23:20.361Z,14.77
2022-12-01T21:25:52.967Z,19.00
2022-12-01T21:28:27.327Z,18.58
2022-12-01T21:31:08.275Z,19.10
2022-12-01T21:33:41.872Z,20.15
2022-12-01T21:36:18.805Z,17.67
2022-12-01T21:38:56.995Z,19.17
2022-12-01T21:41:31.994Z,16.35
2022-12-01T21:44:13.618Z,32.05
2022-12-01T21:46:48.086Z,20.63
2022-12-01T21:49:22.562Z,16.30
2022-12-01T21:51:55.555Z,16.95
2022-12-01T21:54:29.584Z,17.42
2022-12-01T21:57:25.292Z,21.85
2022-12-01T22:00:37.116Z,19.33
2022-12-01T22:03:09.626Z,19.15
2022-12-01T22:06:21.306Z,14.93
2022-12-01T22:08:47.572Z,16.67
2022-12-01T22:11:26.045Z,15.77
2022-12-01T22:14:20.015Z,14.32
2022-12-01T22:16:56.943Z,15.88
2022-12-01T22:19:35.180Z,14.65
2022-12-01T22:22:18.862Z,14.23
2022-12-01T22:24:53.537Z,14.10
2022-12-01T22:27:35.061Z,14.73
2022-12-01T22:30:07.773Z,15.77
2022-12-01T22:32:53.106Z,12.05
2022-12-01T22:35:28.520Z,17.55
2022-12-01T22:38:26.781Z,15.07
2022-12-01T22:41:04.779Z,14.60
2022-12-01T22:43:49.101Z,14.93
2022-12-01T22:46:42.446Z,14.27
2022-12-01T22:49:22.440Z,12.82
2022-12-01T22:52:00.633Z,13.00
2022-12-01T22:54:44.402Z,11.55
2022-12-01T22:57:46.480Z,12.40
2022-12-01T23:00:23.730Z,14.07
2022-12-01T23:02:56.698Z,14.48
2022-12-01T23:05:31.609Z,11.18
2022-12-01T23:08:11.024Z,15.50
2022-12-01T23:10:43.675Z,12.02
2022-12-01T23:13:22.375Z,11.27
2022-12-01T23:15:55.135Z,13.45
2022-12-01T23:18:34.268Z,14.48
2022-12-01T23:21:11.003Z,12.55
2022-12-01T23:23:43.571Z,11.27
2022-12-01T23:26:16.167Z,11.52
2022-12-01T23:28:48.717Z,14.07
2022-12-01T23:31:21.822Z,15.15
2022-12-01T23:33:54.465Z,10.95
2022-12-01T23:36:29.146Z,13.25
2022-12-01T23:39:04.798Z,11.70
2022-12-01T23:41:46.193Z,9.90
2022-12-01T23:44:28.786Z,11.30
2022-12-01T23:47:01.706Z,11.88
2022-12-01T23:49:35.663Z,11.95
2022-12-01T23:52:13.239Z,10.43
2022-12-01T23:54:45.836Z,11.10
2022-12-01T23:57:23.583Z,15.18
